Flight Track Log - Related Links

Times and Time Zones

All times are in EDT time to prevent confusion due to time zone crossing. See the N672DS flight status page for this flight to view local times or setup timezone preferences in your user account.

Time Position Orientation Groundspeed Altitude Reporting Facility
EDT Latitude Longitude Course Direction KTS MPH feet Rate Location/Type
Sun 02:33:58 PM 39.4097 -74.6381 209° Southwest 121 139 2,600  Level Washington Center
Sun 02:35:00 PM 39.3806 -74.6470 193° South  Level FlightAware Approximate
Sun 02:37:00 PM 39.3054 -74.6850 209° Southwest  Level FlightAware Approximate
Sun 02:37:58 PM 39.3125 -74.7628 210° Southwest 127 146 2,500  Level Washington Center
Sun 02:38:00 PM 39.2801 -74.7030 209° Southwest  Level FlightAware Approximate
Sun 02:39:00 PM 39.2547 -74.7209 209° Southwest  Level FlightAware Approximate
Sun 02:39:00 PM 39.3179 -74.8008 280° West  Level Estimated
Sun 02:42:00 PM 39.2488 -74.7169 210° Southwest  Level FlightAware Approximate
Sun 02:42:26 PM 39.1947 -74.8819 280° West 131 151 2,700  Level Washington Center
Sun 02:43:00 PM 39.2237 -74.7354 210° Southwest  Level FlightAware Approximate
Sun 02:44:00 PM 39.1839 -74.9387 256° West  Level FlightAware Approximate
Sun 02:46:00 PM 39.3540 -75.0583 280° West  Level Estimated
Sun 02:46:50 PM 39.0467 -74.9075 265° West 139 160 1,100  Level Washington Center
Sun 02:47:00 PM 39.3592 -75.0951 280° West  Level Estimated
Sun 02:48:00 PM 39.0602 -74.8677 66° East  Level FlightAware Approximate
Sun 02:50:50 PM 39.0339 -74.8433 285° West 119 137 5,500  Level Washington Center
Sun 02:51:00 PM 39.2378 -75.1905 283° West  Level Estimated
Sun 02:52:00 PM 39.2353 -75.2277 265° West  Level FlightAware Approximate
Sun 02:52:00 PM 39.0618 -74.8189 34° Northeast  Level FlightAware Approximate
Sun 02:55:00 PM 39.1155 -74.9520 285° West  Level FlightAware Approximate
Sun 02:56:00 PM 39.1230 -74.9879 285° West  Level FlightAware Approximate
Sun 02:59:00 PM 39.1155 -74.9520 285° West  Level FlightAware Approximate
Sun 03:00:00 PM 39.1230 -74.9879 285° West  Level FlightAware Approximate
Sun 03:01:00 PM 39.1306 -75.0239 285° West  Level FlightAware Approximate
Sun 03:02:00 PM 39.1381 -75.0599 285° West  Level FlightAware Approximate
Sun 03:03:00 PM 39.1457 -75.0959 285° West  Level FlightAware Approximate
Sun 03:04:00 PM 39.1527 -75.1320 283° West  Level FlightAware Approximate
Sun 03:05:00 PM 39.1591 -75.1684 283° West  Level FlightAware Approximate
Sun 03:06:00 PM 39.1655 -75.2048 283° West  Level FlightAware Approximate
Sun 03:07:00 PM 39.1718 -75.2412 283° West  Level FlightAware Approximate
Sun 03:08:00 PM 39.1782 -75.2776 283° West  Level FlightAware Approximate
Sun 03:09:00 PM 39.1845 -75.3140 283° West  Level FlightAware Approximate
Sun 03:10:00 PM 39.1908 -75.3504 283° West  Level FlightAware Approximate
Sun 03:11:00 PM 39.1971 -75.3868 283° West  Level FlightAware Approximate
Sun 03:12:00 PM 39.2034 -75.4232 283° West  Level FlightAware Approximate
Sun 03:12:48 PM 39.2167 -75.6167 263° West 117 135 4,100  Level Potomac TRACON
Sun 03:13:00 PM 39.2097 -75.4596 283° West  Level FlightAware Approximate
Sun 03:13:48 PM 39.2167 -75.6667 270° West 118 136 4,100  Level Potomac TRACON
Sun 03:14:00 PM 39.2160 -75.4960 283° West  Level FlightAware Approximate
Sun 03:14:48 PM 39.2167 -75.7000 270° West 113 130 4,100  Level Potomac TRACON
Sun 03:15:00 PM 39.2134 -75.5330 263° West  Level FlightAware Approximate
Sun 03:15:43 PM 39.2333 -75.7333 303° West 119 137 4,100  Level Potomac TRACON
Sun 03:16:00 PM 39.2098 -75.5700 263° West  Level FlightAware Approximate
Sun 03:16:43 PM 39.2500 -75.7667 303° West 114 131 4,100  Level Potomac TRACON
Sun 03:17:00 PM 39.2061 -75.6070 263° West  Level FlightAware Approximate
Sun 03:17:43 PM 39.2500 -75.8167 270° West 114 131 4,100  Level Potomac TRACON
Sun 03:18:00 PM 39.2024 -75.6441 263° West  Level FlightAware Approximate
Sun 03:18:43 PM 39.2667 -75.8500 303° West 116 133 4,100  Level Potomac TRACON
Sun 03:19:44 PM 39.2833 -75.8833 303° West 114 131 4,100  Level Potomac TRACON
Sun 03:20:38 PM 39.2833 -75.9167 270° West 116 133 4,100  Level Potomac TRACON
Sun 03:21:38 PM 39.3000 -75.9667 293° West 115 132 4,100  Level Potomac TRACON
Sun 03:22:44 PM 39.3167 -76.0000 303° West 115 132 4,100  Level Potomac TRACON
Sun 03:23:45 PM 39.3333 -76.0333 303° West 113 130 4,100  Level Potomac TRACON
Sun 03:24:39 PM 39.3333 -76.0833 270° West 114 131 4,100  Level Potomac TRACON
Sun 03:25:39 PM 39.3500 -76.1167 303° West 119 137 4,100  Level Potomac TRACON
Sun 03:26:39 PM 39.3667 -76.1500 303° West 117 135 4,100  Level Potomac TRACON
Sun 03:27:40 PM 39.3667 -76.2000 270° West 116 133 4,100  Level Potomac TRACON
Sun 03:28:40 PM 39.3833 -76.2333 303° West 118 136 4,100  Level Potomac TRACON
Sun 03:29:40 PM 39.4000 -76.2667 303° West 114 131 4,100  Level Potomac TRACON
Sun 03:30:40 PM 39.4000 -76.3167 270° West 116 133 4,100 -250 Level Potomac TRACON
Sun 03:31:40 PM 39.4167 -76.3500 303° West 113 130 3,600 -500 Descending Potomac TRACON
Sun 03:32:40 PM 39.4333 -76.3833 303° West 115 132 3,100 -248 Descending Potomac TRACON
Sun 03:33:41 PM 39.4333 -76.4167 270° West 114 131 3,100  Level Potomac TRACON
Sun 03:34:41 PM 39.4500 -76.4667 293° West 111 128 3,100  Level Potomac TRACON
Sun 03:35:41 PM 39.4667 -76.5000 303° West 117 135 3,100  Level Potomac TRACON
Sun 03:36:41 PM 39.4667 -76.5500 270° West 116 133 3,100  Level Potomac TRACON
Sun 03:37:36 PM 39.4833 -76.5667 322° Northwest 114 131 3,100  Level Potomac TRACON
Sun 03:38:42 PM 39.4833 -76.6167 270° West 113 130 3,100  Level Potomac TRACON
Sun 03:39:36 PM 39.4833 -76.6500 270° West 116 133 3,100  Level Potomac TRACON
Sun 03:40:36 PM 39.4833 -76.7000 270° West 118 136 3,100  Level Potomac TRACON
Sun 03:41:37 PM 39.4833 -76.7500 270° West 117 135 3,100  Level Potomac TRACON
Sun 03:42:38 PM 39.4833 -76.7833 270° West 117 135 3,100  Level Potomac TRACON

Login

Don't have an account? Register now (free) for customized features, flight alerts, and more!